createdAt,value
2019-03-20T00:01:27.964Z,0.90
2019-03-20T00:04:07.878Z,0.90
2019-03-20T00:06:47.863Z,0.80
2019-03-20T00:09:27.593Z,0.80
2019-03-20T00:12:07.795Z,0.80
2019-03-20T00:14:48.074Z,0.70
2019-03-20T00:17:27.757Z,0.80
2019-03-20T00:20:07.769Z,0.80
2019-03-20T00:22:48.066Z,0.90
2019-03-20T00:25:28.459Z,0.90
2019-03-20T00:28:08.362Z,0.90
2019-03-20T00:30:48.118Z,0.90
2019-03-20T00:33:28.112Z,0.90
2019-03-20T00:36:07.949Z,0.90
2019-03-20T00:38:48.096Z,0.80
2019-03-20T00:41:28.312Z,0.70
2019-03-20T00:44:08.354Z,0.50
2019-03-20T00:46:48.710Z,0.30
2019-03-20T00:49:28.688Z,0.30
2019-03-20T00:52:08.967Z,0.20
2019-03-20T00:54:48.808Z,0.10
2019-03-20T00:57:28.345Z,0.10
2019-03-20T01:00:08.144Z,0.10
2019-03-20T01:02:48.188Z,0.20
2019-03-20T01:05:28.309Z,0.30
2019-03-20T01:08:08.165Z,0.30
2019-03-20T01:10:48.119Z,0.30
2019-03-20T01:13:28.196Z,0.20
2019-03-20T01:16:07.816Z,0.20
2019-03-20T01:18:48.028Z,0.10
2019-03-20T01:21:28.365Z,0.10
2019-03-20T01:24:08.758Z,0.10
2019-03-20T01:26:48.544Z,0.00
2019-03-20T01:29:28.869Z,0.00
2019-03-20T01:32:09.356Z,0.00
2019-03-20T01:34:53.005Z,-0.10
2019-03-20T01:37:20.530Z,-0.10
2019-03-20T01:40:07.797Z,-0.20
2019-03-20T01:42:48.091Z,-0.30
2019-03-20T01:45:28.077Z,-0.30
2019-03-20T01:48:08.547Z,-0.20
2019-03-20T01:50:48.452Z,-0.20
2019-03-20T01:53:29.077Z,-0.10
2019-03-20T01:56:09.223Z,-0.20
2019-03-20T01:58:49.012Z,-0.30
2019-03-20T02:01:29.003Z,-0.30
2019-03-20T02:04:09.370Z,-0.30
2019-03-20T02:09:28.792Z,-0.50
2019-03-20T02:12:09.085Z,-0.60
2019-03-20T02:14:49.225Z,-0.50
2019-03-20T02:17:29.112Z,-0.50
2019-03-20T02:20:09.229Z,-0.40
2019-03-20T02:22:49.485Z,-0.40
2019-03-20T02:25:29.504Z,-0.40
2019-03-20T02:28:09.116Z,-0.40
2019-03-20T02:30:49.240Z,-0.40
2019-03-20T02:33:29.479Z,-0.50
2019-03-20T02:36:09.585Z,-0.40
2019-03-20T02:38:49.724Z,-0.40
2019-03-20T02:41:30.047Z,-0.40
2019-03-20T02:43:57.979Z,-0.40
2019-03-20T02:46:44.750Z,-0.40
2019-03-20T02:49:31.572Z,-0.40
2019-03-20T02:52:11.330Z,-0.50
2019-03-20T02:54:51.225Z,-0.50
2019-03-20T02:57:31.554Z,-0.50
2019-03-20T03:00:11.629Z,-0.60
2019-03-20T03:02:51.094Z,-0.70
2019-03-20T03:05:31.392Z,-0.80
2019-03-20T03:08:11.208Z,-0.80
2019-03-20T03:10:51.319Z,-0.70
2019-03-20T03:13:31.342Z,-0.70
2019-03-20T03:16:11.184Z,-0.80
2019-03-20T03:18:51.456Z,-1.00
2019-03-20T03:21:31.299Z,-1.00
2019-03-20T03:24:11.425Z,-1.00
2019-03-20T03:26:51.687Z,-0.90
2019-03-20T03:29:31.536Z,-0.80
2019-03-20T03:32:11.596Z,-0.70
2019-03-20T03:34:51.450Z,-0.80
2019-03-20T03:37:31.554Z,-0.80
2019-03-20T03:40:11.413Z,-0.70
2019-03-20T03:42:51.766Z,-0.70
2019-03-20T03:45:31.700Z,-0.70
2019-03-20T03:48:11.854Z,-0.80
2019-03-20T03:50:51.702Z,-0.90
2019-03-20T03:53:31.905Z,-0.90
2019-03-20T03:56:11.838Z,-1.00
2019-03-20T03:58:51.875Z,-1.00
2019-03-20T04:01:31.589Z,-1.00
2019-03-20T04:04:11.480Z,-1.10
2019-03-20T04:06:51.597Z,-1.10
2019-03-20T04:09:31.684Z,-1.20
2019-03-20T04:12:12.041Z,-1.20
2019-03-20T04:14:52.277Z,-1.20
2019-03-20T04:17:32.421Z,-1.20
2019-03-20T04:20:12.192Z,-1.20
2019-03-20T04:22:52.815Z,-1.20
2019-03-20T04:25:33.067Z,-1.20
2019-03-20T04:28:12.830Z,-1.20
2019-03-20T04:30:52.869Z,-1.20
2019-03-20T04:33:33.252Z,-1.10
2019-03-20T04:36:12.929Z,-1.00
2019-03-20T04:38:53.282Z,-1.00
2019-03-20T04:41:33.020Z,-1.00
2019-03-20T04:44:12.986Z,-0.90
2019-03-20T04:46:53.091Z,-0.90
2019-03-20T04:49:33.042Z,-0.90
2019-03-20T04:52:14.324Z,-0.90
2019-03-20T04:54:54.088Z,-0.90
2019-03-20T04:57:33.887Z,-0.90
2019-03-20T05:00:14.120Z,-0.90
2019-03-20T05:02:53.929Z,-1.00
2019-03-20T05:05:34.803Z,-1.20
2019-03-20T05:08:14.282Z,-1.30
2019-03-20T05:10:54.421Z,-1.40
2019-03-20T05:13:34.715Z,-1.40
2019-03-20T05:16:14.537Z,-1.30
2019-03-20T05:21:39.386Z,-1.30
2019-03-20T05:24:18.725Z,-1.30
2019-03-20T05:26:59.507Z,-1.20
2019-03-20T05:29:40.107Z,-1.30
2019-03-20T05:32:20.113Z,-1.30
2019-03-20T05:35:00.350Z,-1.20
2019-03-20T05:37:40.578Z,-1.20
2019-03-20T05:40:20.337Z,-1.20
2019-03-20T05:43:00.251Z,-1.10
2019-03-20T05:45:40.453Z,-1.10
2019-03-20T05:48:20.496Z,-1.10
2019-03-20T05:51:00.438Z,-1.00
2019-03-20T05:53:40.266Z,-0.70
2019-03-20T05:56:21.169Z,-0.50
2019-03-20T05:59:01.673Z,-0.50
2019-03-20T06:01:41.104Z,-0.50
2019-03-20T06:04:21.271Z,-0.40
2019-03-20T06:07:01.427Z,-0.10
2019-03-20T06:09:41.620Z,0.10
2019-03-20T06:12:21.341Z,0.30
2019-03-20T06:15:01.472Z,0.70
2019-03-20T06:17:41.738Z,1.00
2019-03-20T06:20:21.541Z,1.30
2019-03-20T06:23:01.976Z,1.60
2019-03-20T06:25:41.656Z,1.90
2019-03-20T06:28:22.173Z,2.20
2019-03-20T06:31:01.616Z,2.50
2019-03-20T06:33:41.772Z,2.80
2019-03-20T06:36:22.008Z,3.00
2019-03-20T06:39:02.088Z,2.90
2019-03-20T06:41:42.955Z,2.80
2019-03-20T06:44:23.038Z,2.90
2019-03-20T06:47:03.412Z,3.10
2019-03-20T06:49:43.497Z,3.30
2019-03-20T06:52:23.657Z,3.50
2019-03-20T06:55:03.278Z,3.50
2019-03-20T06:57:43.197Z,3.80
2019-03-20T07:00:23.099Z,4.20
2019-03-20T07:03:03.342Z,4.50
2019-03-20T07:05:43.191Z,5.10
2019-03-20T07:08:22.683Z,5.80
2019-03-20T07:11:02.659Z,6.80
2019-03-20T07:13:42.785Z,7.70
2019-03-20T07:16:22.854Z,8.50
2019-03-20T07:19:04.393Z,8.90
2019-03-20T07:21:44.377Z,8.80
2019-03-20T07:24:24.385Z,9.00
2019-03-20T07:29:51.504Z,9.10
2019-03-20T07:35:18.090Z,9.80
2019-03-20T07:37:57.481Z,10.20
2019-03-20T07:40:37.576Z,10.70
2019-03-20T07:43:17.379Z,10.50
2019-03-20T07:45:57.799Z,10.30
2019-03-20T07:48:37.421Z,9.50
2019-03-20T07:51:17.547Z,8.60
2019-03-20T07:53:57.603Z,8.80
2019-03-20T07:56:37.373Z,8.70
2019-03-20T07:59:17.372Z,9.30
2019-03-20T08:01:57.528Z,9.90
2019-03-20T08:04:37.181Z,10.40
2019-03-20T08:07:17.253Z,10.40
2019-03-20T08:09:57.570Z,10.60
2019-03-20T08:12:37.693Z,10.80
2019-03-20T08:15:17.691Z,11.70
2019-03-20T08:17:57.930Z,11.80
2019-03-20T08:20:38.501Z,11.90
2019-03-20T08:23:06.565Z,13.00
2019-03-20T08:25:53.096Z,13.40
2019-03-20T08:28:33.129Z,12.70
2019-03-20T08:31:13.255Z,12.40
2019-03-20T08:33:53.300Z,11.90
2019-03-20T08:36:33.679Z,12.20
2019-03-20T08:39:13.266Z,12.40
2019-03-20T08:41:53.607Z,12.80
2019-03-20T08:47:14.362Z,15.10
2019-03-20T08:49:55.457Z,16.00
2019-03-20T08:55:27.419Z,18.10
2019-03-20T08:58:20.428Z,18.20
2019-03-20T09:00:59.835Z,17.50
2019-03-20T09:03:40.507Z,18.00
2019-03-20T09:06:20.253Z,16.00
2019-03-20T09:09:00.297Z,16.00
2019-03-20T09:11:40.224Z,17.40
2019-03-20T09:14:20.634Z,19.20
2019-03-20T09:17:00.531Z,20.00
2019-03-20T09:19:41.400Z,18.90
2019-03-20T09:22:21.828Z,17.70
2019-03-20T09:25:01.467Z,17.80
2019-03-20T09:27:41.590Z,17.90
2019-03-20T09:30:21.611Z,17.90
2019-03-20T09:33:01.885Z,16.50
2019-03-20T09:35:41.935Z,17.10
2019-03-20T09:38:22.112Z,18.30
2019-03-20T09:41:02.116Z,18.60
2019-03-20T09:43:42.676Z,17.90
2019-03-20T09:46:22.476Z,18.70
2019-03-20T09:49:02.608Z,19.20
2019-03-20T09:54:22.601Z,19.70
2019-03-20T09:57:02.970Z,19.10
2019-03-20T09:59:45.871Z,19.40
2019-03-20T10:02:25.076Z,21.30
2019-03-20T10:05:05.534Z,21.80
2019-03-20T10:07:45.185Z,22.30
2019-03-20T10:10:25.143Z,22.20
2019-03-20T10:13:05.236Z,22.10
2019-03-20T10:15:45.841Z,22.70
2019-03-20T10:18:25.763Z,23.00
2019-03-20T10:21:05.628Z,23.10
2019-03-20T10:23:45.795Z,23.30
2019-03-20T10:26:26.528Z,24.20
2019-03-20T10:29:06.626Z,24.10
2019-03-20T10:31:46.250Z,22.70
2019-03-20T10:34:26.459Z,22.40
2019-03-20T10:37:06.404Z,22.80
2019-03-20T10:39:46.906Z,22.60
2019-03-20T10:42:26.831Z,22.30
2019-03-20T10:45:06.989Z,22.40
2019-03-20T10:47:46.863Z,22.50
2019-03-20T10:50:28.263Z,23.50
2019-03-20T10:53:08.072Z,24.20
2019-03-20T10:55:48.101Z,24.50
2019-03-20T10:58:28.009Z,25.90
2019-03-20T11:01:07.927Z,27.90
2019-03-20T11:03:52.031Z,27.80
2019-03-20T11:06:30.280Z,27.30
2019-03-20T11:09:18.691Z,27.80
2019-03-20T11:12:18.809Z,29.40
2019-03-20T11:14:58.993Z,28.80
2019-03-20T11:17:38.822Z,27.90
2019-03-20T11:20:18.591Z,27.40
2019-03-20T11:22:58.180Z,25.90
2019-03-20T11:25:38.217Z,25.10
2019-03-20T11:28:17.908Z,23.10
2019-03-20T11:30:58.206Z,24.10
2019-03-20T11:33:39.484Z,23.10
2019-03-20T11:36:19.821Z,23.70
2019-03-20T11:38:59.496Z,24.60
2019-03-20T11:41:39.749Z,26.50
2019-03-20T11:44:19.595Z,27.80
2019-03-20T11:46:59.729Z,29.20
2019-03-20T11:49:39.720Z,29.10
2019-03-20T11:52:19.732Z,28.70
2019-03-20T11:55:00.087Z,27.50
2019-03-20T11:57:40.283Z,27.30
2019-03-20T12:00:20.049Z,26.40
2019-03-20T12:03:04.259Z,23.90
2019-03-20T12:05:44.699Z,23.30
2019-03-20T12:08:26.044Z,22.80
2019-03-20T12:11:06.866Z,24.40
2019-03-20T12:13:47.113Z,25.60
2019-03-20T12:16:27.304Z,26.80
2019-03-20T12:19:07.192Z,29.00
2019-03-20T12:21:47.196Z,30.90
2019-03-20T12:24:31.000Z,31.80
2019-03-20T12:27:15.445Z,33.10
2019-03-20T12:29:53.473Z,31.00
2019-03-20T12:32:34.283Z,30.40
2019-03-20T12:35:14.078Z,30.70
2019-03-20T12:37:54.171Z,31.30
2019-03-20T12:40:33.987Z,29.10
2019-03-20T12:43:14.089Z,28.90
2019-03-20T12:45:54.321Z,29.50
2019-03-20T12:48:34.631Z,29.60
2019-03-20T12:51:14.340Z,29.50
2019-03-20T12:53:54.382Z,29.90
2019-03-20T12:56:35.360Z,28.10
2019-03-20T12:59:15.456Z,29.30
2019-03-20T13:01:55.351Z,30.30
2019-03-20T13:04:35.358Z,28.80
2019-03-20T13:07:15.273Z,29.90
2019-03-20T13:10:03.028Z,26.50
2019-03-20T13:12:37.446Z,23.90
2019-03-20T13:15:17.340Z,25.20
2019-03-20T13:17:57.833Z,25.90
2019-03-20T13:20:37.968Z,26.80
2019-03-20T13:23:18.482Z,28.20
2019-03-20T13:26:00.820Z,28.50
2019-03-20T13:28:40.810Z,29.60
2019-03-20T13:31:20.823Z,31.00
2019-03-20T13:34:01.561Z,30.50
2019-03-20T13:36:41.493Z,30.70
2019-03-20T13:39:21.307Z,30.50
2019-03-20T13:42:01.233Z,30.90
2019-03-20T13:44:41.709Z,32.00
2019-03-20T13:47:09.118Z,32.80
2019-03-20T13:49:56.212Z,33.20
2019-03-20T13:52:36.258Z,33.80
2019-03-20T13:55:16.515Z,34.30
2019-03-20T13:57:56.601Z,34.40
2019-03-20T14:00:36.437Z,33.40
2019-03-20T14:03:16.443Z,33.00
2019-03-20T14:05:56.893Z,30.10
2019-03-20T14:08:36.700Z,29.80
2019-03-20T14:11:16.948Z,31.00
2019-03-20T14:13:56.955Z,31.60
2019-03-20T14:16:37.243Z,31.70
2019-03-20T14:19:17.275Z,31.40
2019-03-20T14:21:57.233Z,29.00
2019-03-20T14:24:37.487Z,27.20
2019-03-20T14:27:18.191Z,26.40
2019-03-20T14:29:59.108Z,27.30
2019-03-20T14:32:46.005Z,28.20
2019-03-20T14:35:25.536Z,28.60
2019-03-20T14:38:05.295Z,29.00
2019-03-20T14:43:25.019Z,30.30
2019-03-20T14:46:05.716Z,30.50
2019-03-20T14:48:45.062Z,30.20
2019-03-20T14:51:25.077Z,30.30
2019-03-20T14:54:05.592Z,30.30
2019-03-20T14:56:46.201Z,28.90
2019-03-20T14:59:26.458Z,28.60
2019-03-20T15:02:06.557Z,28.80
2019-03-20T15:04:46.647Z,28.60
2019-03-20T15:07:26.775Z,29.30
2019-03-20T15:10:06.880Z,29.20
2019-03-20T15:12:46.878Z,29.80
2019-03-20T15:15:27.175Z,30.30
2019-03-20T15:18:07.656Z,30.30
2019-03-20T15:20:47.755Z,29.90
2019-03-20T15:23:27.765Z,29.80
2019-03-20T15:26:08.134Z,28.90
2019-03-20T15:28:48.223Z,28.90
2019-03-20T15:31:27.825Z,27.80
2019-03-20T15:34:07.631Z,26.60
2019-03-20T15:36:47.839Z,25.70
2019-03-20T15:39:31.351Z,25.60
2019-03-20T15:42:10.926Z,25.80
2019-03-20T15:44:50.754Z,25.60
2019-03-20T15:47:30.740Z,26.10
2019-03-20T15:50:10.516Z,25.70
2019-03-20T15:52:50.447Z,24.90
2019-03-20T15:55:30.585Z,23.80
2019-03-20T15:58:10.943Z,24.20
2019-03-20T16:00:51.228Z,24.50
2019-03-20T16:03:31.577Z,23.90
2019-03-20T16:06:11.308Z,24.00
2019-03-20T16:08:50.919Z,23.70
2019-03-20T16:11:31.339Z,23.60
2019-03-20T16:14:11.040Z,23.80
2019-03-20T16:16:50.720Z,23.70
2019-03-20T16:19:30.709Z,22.50
2019-03-20T16:22:10.847Z,22.60
2019-03-20T16:24:52.846Z,22.70
2019-03-20T16:27:32.922Z,22.50
2019-03-20T16:30:12.975Z,21.50
2019-03-20T16:32:56.263Z,21.20
2019-03-20T16:35:35.721Z,21.10
2019-03-20T16:38:15.901Z,19.90
2019-03-20T16:40:56.089Z,19.30
2019-03-20T16:43:35.949Z,19.80
2019-03-20T16:46:17.084Z,20.10
2019-03-20T16:48:57.081Z,19.90
2019-03-20T16:51:36.914Z,19.20
2019-03-20T16:54:17.023Z,18.40
2019-03-20T16:56:56.975Z,17.80
2019-03-20T16:59:37.163Z,16.80
2019-03-20T17:02:16.873Z,16.00
2019-03-20T17:04:57.426Z,15.30
2019-03-20T17:07:37.073Z,15.00
2019-03-20T17:10:17.392Z,14.70
2019-03-20T17:12:57.495Z,14.30
2019-03-20T17:15:37.738Z,14.00
2019-03-20T17:18:17.732Z,13.70
2019-03-20T17:20:58.025Z,13.40
2019-03-20T17:23:38.689Z,13.20
2019-03-20T17:26:18.524Z,12.90
2019-03-20T17:29:08.398Z,12.60
2019-03-20T17:31:40.374Z,12.40
2019-03-20T17:34:20.422Z,12.20
2019-03-20T17:37:00.625Z,11.90
2019-03-20T17:39:40.484Z,11.70
2019-03-20T17:42:20.577Z,11.50
2019-03-20T17:45:00.414Z,11.30
2019-03-20T17:47:40.976Z,11.20
2019-03-20T17:50:20.908Z,11.10
2019-03-20T17:53:01.047Z,11.00
2019-03-20T17:55:42.166Z,10.90
2019-03-20T17:58:22.250Z,10.70
2019-03-20T18:01:02.244Z,10.60
2019-03-20T18:03:42.395Z,10.40
2019-03-20T18:06:22.487Z,10.40
2019-03-20T18:09:03.656Z,10.20
2019-03-20T18:11:47.791Z,10.00
2019-03-20T18:14:26.739Z,9.90
2019-03-20T18:17:10.580Z,9.90
2019-03-20T18:19:51.816Z,9.80
2019-03-20T18:22:32.023Z,9.60
2019-03-20T18:25:12.343Z,9.50
2019-03-20T18:27:52.232Z,9.40
2019-03-20T18:30:31.770Z,9.20
2019-03-20T18:33:11.711Z,9.20
2019-03-20T18:35:51.382Z,9.10
2019-03-20T18:38:31.834Z,9.00
2019-03-20T18:41:11.554Z,8.90
2019-03-20T18:43:53.087Z,8.80
2019-03-20T18:46:31.687Z,8.80
2019-03-20T18:49:18.753Z,8.60
2019-03-20T18:51:58.875Z,8.50
2019-03-20T18:54:38.743Z,8.10
2019-03-20T18:57:18.534Z,7.80
2019-03-20T18:59:58.711Z,7.80
2019-03-20T19:02:38.688Z,7.90
2019-03-20T19:05:18.724Z,7.70
2019-03-20T19:07:58.405Z,7.70
2019-03-20T19:10:38.812Z,7.60
2019-03-20T19:13:18.528Z,7.50
2019-03-20T19:16:02.456Z,7.30
2019-03-20T19:18:42.804Z,7.20
2019-03-20T19:21:22.947Z,7.30
2019-03-20T19:24:02.868Z,7.20
2019-03-20T19:26:43.339Z,7.30
2019-03-20T19:29:23.005Z,7.20
2019-03-20T19:32:02.981Z,7.20
2019-03-20T19:34:43.053Z,7.20
2019-03-20T19:37:23.133Z,7.10
2019-03-20T19:40:03.223Z,6.90
2019-03-20T19:42:43.353Z,6.70
2019-03-20T19:45:23.356Z,6.70
2019-03-20T19:48:04.154Z,6.60
2019-03-20T19:50:43.683Z,6.50
2019-03-20T19:53:24.205Z,6.50
2019-03-20T19:56:03.704Z,6.50
2019-03-20T19:58:43.542Z,6.40
2019-03-20T20:01:23.911Z,6.30
2019-03-20T20:04:04.141Z,6.30
2019-03-20T20:06:43.569Z,6.20
2019-03-20T20:09:23.916Z,6.10
2019-03-20T20:12:03.972Z,6.00
2019-03-20T20:14:44.262Z,5.90
2019-03-20T20:17:24.461Z,5.70
2019-03-20T20:20:04.008Z,5.50
2019-03-20T20:22:44.221Z,5.40
2019-03-20T20:25:25.914Z,5.30
2019-03-20T20:27:54.209Z,5.30
2019-03-20T20:30:41.124Z,5.40
2019-03-20T20:33:21.315Z,5.40
2019-03-20T20:36:01.486Z,5.40
2019-03-20T20:38:41.253Z,5.40
2019-03-20T20:41:22.023Z,5.40
2019-03-20T20:44:01.864Z,5.30
2019-03-20T20:46:42.014Z,5.30
2019-03-20T20:49:22.018Z,5.20
2019-03-20T20:52:02.151Z,5.10
2019-03-20T20:54:42.415Z,4.90
2019-03-20T20:57:22.187Z,4.70
2019-03-20T21:00:02.313Z,4.60
2019-03-20T21:02:42.036Z,4.50
2019-03-20T21:05:23.392Z,4.40
2019-03-20T21:08:03.557Z,4.50
2019-03-20T21:10:43.661Z,4.70
2019-03-20T21:13:23.755Z,4.80
2019-03-20T21:16:03.671Z,4.90
2019-03-20T21:18:43.654Z,4.90
2019-03-20T21:21:26.801Z,5.00
2019-03-20T21:24:06.819Z,5.10
2019-03-20T21:26:47.045Z,5.10
2019-03-20T21:29:26.641Z,5.00
2019-03-20T21:32:06.879Z,4.80
2019-03-20T21:34:47.088Z,4.70
2019-03-20T21:37:27.010Z,4.60
2019-03-20T21:40:06.942Z,4.60
2019-03-20T21:42:47.663Z,4.50
2019-03-20T21:45:27.816Z,4.40
2019-03-20T21:48:08.323Z,4.30
2019-03-20T21:50:47.774Z,4.20
2019-03-20T21:53:27.820Z,4.20
2019-03-20T21:56:08.093Z,4.20
2019-03-20T21:58:47.883Z,4.20
2019-03-20T22:01:27.895Z,4.20
2019-03-20T22:04:07.796Z,4.20
2019-03-20T22:06:47.639Z,4.20
2019-03-20T22:09:27.437Z,4.20
2019-03-20T22:12:07.427Z,4.30
2019-03-20T22:14:46.735Z,4.30
2019-03-20T22:17:27.147Z,4.20
2019-03-20T22:20:06.832Z,4.10
2019-03-20T22:22:46.849Z,3.90
2019-03-20T22:25:26.767Z,3.90
2019-03-20T22:28:07.108Z,3.80
2019-03-20T22:30:46.946Z,3.80
2019-03-20T22:33:27.355Z,3.80
2019-03-20T22:35:59.522Z,3.90
2019-03-20T22:39:05.702Z,3.80
2019-03-20T22:41:46.760Z,3.80
2019-03-20T22:44:26.852Z,3.80
2019-03-20T22:47:07.810Z,3.70
2019-03-20T22:49:47.396Z,3.60
2019-03-20T22:52:27.388Z,3.50
2019-03-20T22:55:07.307Z,3.50
2019-03-20T22:57:51.047Z,3.40
2019-03-20T23:00:32.522Z,3.50
2019-03-20T23:03:13.699Z,3.50
2019-03-20T23:05:54.646Z,3.50
2019-03-20T23:08:34.947Z,3.50
2019-03-20T23:11:16.412Z,3.40
2019-03-20T23:13:56.354Z,3.40
2019-03-20T23:16:36.103Z,3.30
2019-03-20T23:19:16.332Z,3.30
2019-03-20T23:21:56.123Z,3.20
2019-03-20T23:24:36.067Z,3.20
2019-03-20T23:27:16.260Z,3.10
2019-03-20T23:29:56.549Z,3.10
2019-03-20T23:32:36.371Z,3.00
2019-03-20T23:35:16.225Z,3.00
2019-03-20T23:37:56.258Z,3.00
2019-03-20T23:40:36.281Z,3.00
2019-03-20T23:43:16.449Z,3.00
2019-03-20T23:45:56.869Z,2.90
2019-03-20T23:48:36.771Z,2.90
2019-03-20T23:51:16.582Z,2.90
2019-03-20T23:53:56.416Z,2.90
2019-03-20T23:56:37.969Z,2.90
2019-03-20T23:59:17.866Z,2.90
